Terminal Aerodrome Forecast
Issued by NWS Knoxville/Tri Cities, TN

Home | Current Version | Previous Version | Text Only | Print | Product List | Glossary On
Versions: 1 2 3 4 5 6 7 8 9 10 11 12 13 14 15 16
000
FTUS44 KMRX 301813 AAA
TAFTRI
TAF AMD
KTRI 301813Z 3018/3118 28005KT P6SM VCTS SCT040CB
     FM310000 VRB03KT P6SM SCT250
     FM310700 00000KT 5SM BR SCT250
     FM311400 00000KT P6SM SCT250=

USA.gov is the U.S. government's official web portal to all federal, state and local government web resources and services.